sensor_id;sensor_type;location;lat;lon;timestamp;temperature;humidity
62363;DHT22;48396;48.426;1.500;2023-05-20T00:01:42;18.50;68.40
62363;DHT22;48396;48.426;1.500;2023-05-20T00:04:07;18.40;67.80
62363;DHT22;48396;48.426;1.500;2023-05-20T00:06:33;18.30;68.00
62363;DHT22;48396;48.426;1.500;2023-05-20T00:08:59;18.30;68.20
62363;DHT22;48396;48.426;1.500;2023-05-20T00:11:24;18.30;68.30
62363;DHT22;48396;48.426;1.500;2023-05-20T00:13:50;18.30;68.40
62363;DHT22;48396;48.426;1.500;2023-05-20T00:16:16;18.20;68.30
62363;DHT22;48396;48.426;1.500;2023-05-20T00:18:41;18.10;68.50
62363;DHT22;48396;48.426;1.500;2023-05-20T00:21:07;18.10;68.60
62363;DHT22;48396;48.426;1.500;2023-05-20T00:23:32;18.10;68.60
62363;DHT22;48396;48.426;1.500;2023-05-20T00:25:58;18.00;68.50
62363;DHT22;48396;48.426;1.500;2023-05-20T00:28:24;17.90;69.00
62363;DHT22;48396;48.426;1.500;2023-05-20T00:30:49;17.80;69.00
62363;DHT22;48396;48.426;1.500;2023-05-20T00:33:15;17.90;69.10
62363;DHT22;48396;48.426;1.500;2023-05-20T00:35:40;17.80;69.00
62363;DHT22;48396;48.426;1.500;2023-05-20T00:38:06;17.80;69.10
62363;DHT22;48396;48.426;1.500;2023-05-20T00:40:31;17.80;69.00
62363;DHT22;48396;48.426;1.500;2023-05-20T00:42:57;17.70;69.10
62363;DHT22;48396;48.426;1.500;2023-05-20T00:45:22;17.60;69.30
62363;DHT22;48396;48.426;1.500;2023-05-20T00:47:48;17.60;69.40
62363;DHT22;48396;48.426;1.500;2023-05-20T00:50:15;17.60;69.40
62363;DHT22;48396;48.426;1.500;2023-05-20T00:52:41;17.60;69.40
62363;DHT22;48396;48.426;1.500;2023-05-20T00:55:09;17.50;69.50
62363;DHT22;48396;48.426;1.500;2023-05-20T00:57:35;17.50;69.80
62363;DHT22;48396;48.426;1.500;2023-05-20T01:00:01;17.50;69.60
62363;DHT22;48396;48.426;1.500;2023-05-20T01:02:27;17.40;69.80
62363;DHT22;48396;48.426;1.500;2023-05-20T01:04:53;17.40;69.90
62363;DHT22;48396;48.426;1.500;2023-05-20T01:07:20;17.30;70.00
62363;DHT22;48396;48.426;1.500;2023-05-20T01:09:46;17.30;70.00
62363;DHT22;48396;48.426;1.500;2023-05-20T01:12:17;17.20;69.80
62363;DHT22;48396;48.426;1.500;2023-05-20T01:14:53;17.20;69.90
62363;DHT22;48396;48.426;1.500;2023-05-20T01:17:22;17.30;69.80
62363;DHT22;48396;48.426;1.500;2023-05-20T01:19:51;17.30;69.80
62363;DHT22;48396;48.426;1.500;2023-05-20T01:22:23;17.30;69.70
62363;DHT22;48396;48.426;1.500;2023-05-20T01:24:49;17.30;69.40
62363;DHT22;48396;48.426;1.500;2023-05-20T01:27:18;17.30;69.60
62363;DHT22;48396;48.426;1.500;2023-05-20T01:29:45;17.30;69.40
62363;DHT22;48396;48.426;1.500;2023-05-20T01:32:19;17.30;69.40
62363;DHT22;48396;48.426;1.500;2023-05-20T01:34:51;17.30;69.40
62363;DHT22;48396;48.426;1.500;2023-05-20T01:37:18;17.30;69.40
62363;DHT22;48396;48.426;1.500;2023-05-20T01:39:44;17.20;70.00
62363;DHT22;48396;48.426;1.500;2023-05-20T01:42:11;17.20;69.50
62363;DHT22;48396;48.426;1.500;2023-05-20T01:44:38;17.10;69.80
62363;DHT22;48396;48.426;1.500;2023-05-20T01:47:04;16.90;70.10
62363;DHT22;48396;48.426;1.500;2023-05-20T01:49:29;16.90;70.10
62363;DHT22;48396;48.426;1.500;2023-05-20T01:51:55;16.90;70.30
62363;DHT22;48396;48.426;1.500;2023-05-20T01:54:21;16.90;70.20
62363;DHT22;48396;48.426;1.500;2023-05-20T01:56:47;16.90;70.20
62363;DHT22;48396;48.426;1.500;2023-05-20T01:59:12;16.90;70.00
62363;DHT22;48396;48.426;1.500;2023-05-20T02:01:38;16.90;70.00
62363;DHT22;48396;48.426;1.500;2023-05-20T02:04:03;16.70;70.40
62363;DHT22;48396;48.426;1.500;2023-05-20T02:06:29;16.60;70.80
62363;DHT22;48396;48.426;1.500;2023-05-20T02:08:55;16.60;70.70
62363;DHT22;48396;48.426;1.500;2023-05-20T02:11:20;16.70;70.60
62363;DHT22;48396;48.426;1.500;2023-05-20T02:13:46;16.70;70.40
62363;DHT22;48396;48.426;1.500;2023-05-20T02:16:12;16.70;70.60
62363;DHT22;48396;48.426;1.500;2023-05-20T02:18:37;16.70;70.80
62363;DHT22;48396;48.426;1.500;2023-05-20T02:21:04;16.70;70.80
62363;DHT22;48396;48.426;1.500;2023-05-20T02:23:30;16.60;70.70
62363;DHT22;48396;48.426;1.500;2023-05-20T02:25:56;16.60;70.60
62363;DHT22;48396;48.426;1.500;2023-05-20T02:28:22;16.60;70.70
62363;DHT22;48396;48.426;1.500;2023-05-20T02:30:47;16.70;70.70
62363;DHT22;48396;48.426;1.500;2023-05-20T02:33:15;16.70;70.60
62363;DHT22;48396;48.426;1.500;2023-05-20T02:35:41;16.60;70.60
62363;DHT22;48396;48.426;1.500;2023-05-20T02:38:06;16.60;70.70
62363;DHT22;48396;48.426;1.500;2023-05-20T02:40:32;16.60;70.70
62363;DHT22;48396;48.426;1.500;2023-05-20T02:42:59;16.60;70.80
62363;DHT22;48396;48.426;1.500;2023-05-20T02:45:25;16.60;70.80
62363;DHT22;48396;48.426;1.500;2023-05-20T02:47:50;16.60;70.70
62363;DHT22;48396;48.426;1.500;2023-05-20T02:50:16;16.60;70.60
62363;DHT22;48396;48.426;1.500;2023-05-20T02:52:41;16.50;70.60
62363;DHT22;48396;48.426;1.500;2023-05-20T02:55:08;16.60;70.90
62363;DHT22;48396;48.426;1.500;2023-05-20T02:57:34;16.40;70.90
62363;DHT22;48396;48.426;1.500;2023-05-20T03:00:03;16.30;71.00
62363;DHT22;48396;48.426;1.500;2023-05-20T03:02:30;16.40;71.30
62363;DHT22;48396;48.426;1.500;2023-05-20T03:04:55;16.40;71.40
62363;DHT22;48396;48.426;1.500;2023-05-20T03:07:21;16.30;71.20
62363;DHT22;48396;48.426;1.500;2023-05-20T03:09:47;16.30;71.40
62363;DHT22;48396;48.426;1.500;2023-05-20T03:12:13;16.30;71.50
62363;DHT22;48396;48.426;1.500;2023-05-20T03:14:38;16.20;71.60
62363;DHT22;48396;48.426;1.500;2023-05-20T03:17:04;16.30;71.70
62363;DHT22;48396;48.426;1.500;2023-05-20T03:19:30;16.30;71.70
62363;DHT22;48396;48.426;1.500;2023-05-20T03:21:55;16.20;71.50
62363;DHT22;48396;48.426;1.500;2023-05-20T03:24:22;16.20;71.70
62363;DHT22;48396;48.426;1.500;2023-05-20T03:26:48;16.20;71.70
62363;DHT22;48396;48.426;1.500;2023-05-20T03:29:14;16.10;72.60
62363;DHT22;48396;48.426;1.500;2023-05-20T03:31:40;16.10;72.00
62363;DHT22;48396;48.426;1.500;2023-05-20T03:34:06;16.20;71.80
62363;DHT22;48396;48.426;1.500;2023-05-20T03:36:32;16.10;71.80
62363;DHT22;48396;48.426;1.500;2023-05-20T03:38:57;16.20;71.80
62363;DHT22;48396;48.426;1.500;2023-05-20T03:41:23;16.20;71.80
62363;DHT22;48396;48.426;1.500;2023-05-20T03:43:48;16.10;71.80
62363;DHT22;48396;48.426;1.500;2023-05-20T03:46:14;16.10;72.00
62363;DHT22;48396;48.426;1.500;2023-05-20T03:48:39;16.10;72.30
62363;DHT22;48396;48.426;1.500;2023-05-20T03:51:05;16.00;72.20
62363;DHT22;48396;48.426;1.500;2023-05-20T03:53:31;16.00;72.20
62363;DHT22;48396;48.426;1.500;2023-05-20T03:55:56;16.10;72.20
62363;DHT22;48396;48.426;1.500;2023-05-20T03:58:22;16.00;72.20
62363;DHT22;48396;48.426;1.500;2023-05-20T04:00:48;16.00;72.40
62363;DHT22;48396;48.426;1.500;2023-05-20T04:03:13;15.90;72.60
62363;DHT22;48396;48.426;1.500;2023-05-20T04:05:39;15.90;72.60
62363;DHT22;48396;48.426;1.500;2023-05-20T04:08:05;15.80;72.70
62363;DHT22;48396;48.426;1.500;2023-05-20T04:10:32;15.80;72.90
62363;DHT22;48396;48.426;1.500;2023-05-20T04:12:58;15.70;72.80
62363;DHT22;48396;48.426;1.500;2023-05-20T04:15:23;15.80;73.00
62363;DHT22;48396;48.426;1.500;2023-05-20T04:17:50;15.90;73.00
62363;DHT22;48396;48.426;1.500;2023-05-20T04:20:16;15.80;73.00
62363;DHT22;48396;48.426;1.500;2023-05-20T04:22:43;15.90;73.00
62363;DHT22;48396;48.426;1.500;2023-05-20T04:25:09;15.90;73.00
62363;DHT22;48396;48.426;1.500;2023-05-20T04:27:34;15.80;73.20
62363;DHT22;48396;48.426;1.500;2023-05-20T04:30:04;15.80;73.20
62363;DHT22;48396;48.426;1.500;2023-05-20T04:32:31;15.80;73.30
62363;DHT22;48396;48.426;1.500;2023-05-20T04:34:58;15.70;73.70
62363;DHT22;48396;48.426;1.500;2023-05-20T04:37:26;15.80;74.10
62363;DHT22;48396;48.426;1.500;2023-05-20T04:39:52;15.70;73.80
62363;DHT22;48396;48.426;1.500;2023-05-20T04:42:18;15.80;73.60
62363;DHT22;48396;48.426;1.500;2023-05-20T04:44:46;15.90;73.90
62363;DHT22;48396;48.426;1.500;2023-05-20T04:47:12;15.90;73.90
62363;DHT22;48396;48.426;1.500;2023-05-20T04:49:38;15.80;73.70
62363;DHT22;48396;48.426;1.500;2023-05-20T04:52:04;15.70;73.60
62363;DHT22;48396;48.426;1.500;2023-05-20T04:54:31;15.90;73.70
62363;DHT22;48396;48.426;1.500;2023-05-20T04:56:57;15.90;73.60
62363;DHT22;48396;48.426;1.500;2023-05-20T04:59:23;15.90;73.70
62363;DHT22;48396;48.426;1.500;2023-05-20T05:01:48;16.00;73.80
62363;DHT22;48396;48.426;1.500;2023-05-20T05:04:14;16.00;73.90
62363;DHT22;48396;48.426;1.500;2023-05-20T05:06:39;15.80;74.00
62363;DHT22;48396;48.426;1.500;2023-05-20T05:09:05;15.90;74.30
62363;DHT22;48396;48.426;1.500;2023-05-20T05:11:32;15.90;74.20
62363;DHT22;48396;48.426;1.500;2023-05-20T05:13:58;16.00;74.10
62363;DHT22;48396;48.426;1.500;2023-05-20T05:16:23;16.10;73.90
62363;DHT22;48396;48.426;1.500;2023-05-20T05:18:49;16.00;73.90
62363;DHT22;48396;48.426;1.500;2023-05-20T05:21:14;16.10;74.00
62363;DHT22;48396;48.426;1.500;2023-05-20T05:23:40;16.10;74.30
62363;DHT22;48396;48.426;1.500;2023-05-20T05:26:06;15.90;74.50
62363;DHT22;48396;48.426;1.500;2023-05-20T05:28:32;15.80;74.70
62363;DHT22;48396;48.426;1.500;2023-05-20T05:30:58;15.70;74.80
62363;DHT22;48396;48.426;1.500;2023-05-20T05:33:23;15.90;75.00
62363;DHT22;48396;48.426;1.500;2023-05-20T05:35:49;15.80;75.10
62363;DHT22;48396;48.426;1.500;2023-05-20T05:38:15;15.80;75.10
62363;DHT22;48396;48.426;1.500;2023-05-20T05:40:41;15.80;75.20
62363;DHT22;48396;48.426;1.500;2023-05-20T05:43:07;15.80;75.40
62363;DHT22;48396;48.426;1.500;2023-05-20T05:45:32;15.70;75.40
62363;DHT22;48396;48.426;1.500;2023-05-20T05:47:58;15.80;75.30
62363;DHT22;48396;48.426;1.500;2023-05-20T05:50:23;15.80;75.80
62363;DHT22;48396;48.426;1.500;2023-05-20T05:52:49;15.70;75.80
62363;DHT22;48396;48.426;1.500;2023-05-20T05:55:15;15.80;75.80
62363;DHT22;48396;48.426;1.500;2023-05-20T05:57:42;15.90;75.80
62363;DHT22;48396;48.426;1.500;2023-05-20T06:00:08;15.90;75.60
62363;DHT22;48396;48.426;1.500;2023-05-20T06:02:34;15.90;75.60
62363;DHT22;48396;48.426;1.500;2023-05-20T06:05:03;15.80;76.00
62363;DHT22;48396;48.426;1.500;2023-05-20T06:07:29;15.80;76.00
62363;DHT22;48396;48.426;1.500;2023-05-20T06:09:55;15.70;76.30
62363;DHT22;48396;48.426;1.500;2023-05-20T06:12:20;15.70;76.60
62363;DHT22;48396;48.426;1.500;2023-05-20T06:14:47;15.70;76.60
62363;DHT22;48396;48.426;1.500;2023-05-20T06:17:13;15.70;76.30
62363;DHT22;48396;48.426;1.500;2023-05-20T06:19:39;15.80;76.30
62363;DHT22;48396;48.426;1.500;2023-05-20T06:22:05;15.90;76.10
62363;DHT22;48396;48.426;1.500;2023-05-20T06:24:30;15.90;76.00
62363;DHT22;48396;48.426;1.500;2023-05-20T06:26:56;15.80;76.10
62363;DHT22;48396;48.426;1.500;2023-05-20T06:29:22;15.90;76.50
62363;DHT22;48396;48.426;1.500;2023-05-20T06:31:48;15.90;76.50
62363;DHT22;48396;48.426;1.500;2023-05-20T06:34:13;16.00;76.50
62363;DHT22;48396;48.426;1.500;2023-05-20T06:36:39;16.00;76.50
62363;DHT22;48396;48.426;1.500;2023-05-20T06:39:04;15.90;76.60
62363;DHT22;48396;48.426;1.500;2023-05-20T06:41:35;15.90;76.90
62363;DHT22;48396;48.426;1.500;2023-05-20T06:44:01;15.90;76.90
62363;DHT22;48396;48.426;1.500;2023-05-20T06:46:26;15.90;76.80
62363;DHT22;48396;48.426;1.500;2023-05-20T06:48:52;16.00;76.90
62363;DHT22;48396;48.426;1.500;2023-05-20T06:51:17;16.00;76.90
62363;DHT22;48396;48.426;1.500;2023-05-20T06:53:43;16.00;76.90
62363;DHT22;48396;48.426;1.500;2023-05-20T06:56:09;16.10;76.90
62363;DHT22;48396;48.426;1.500;2023-05-20T06:58:34;16.00;77.10
62363;DHT22;48396;48.426;1.500;2023-05-20T07:01:00;16.00;77.40
62363;DHT22;48396;48.426;1.500;2023-05-20T07:03:25;16.00;77.40
62363;DHT22;48396;48.426;1.500;2023-05-20T07:05:51;16.00;77.30
62363;DHT22;48396;48.426;1.500;2023-05-20T07:08:17;16.10;77.30
62363;DHT22;48396;48.426;1.500;2023-05-20T07:10:42;16.10;77.30
62363;DHT22;48396;48.426;1.500;2023-05-20T07:13:08;16.30;77.10
62363;DHT22;48396;48.426;1.500;2023-05-20T07:15:33;16.30;77.10
62363;DHT22;48396;48.426;1.500;2023-05-20T07:17:59;16.20;77.10
62363;DHT22;48396;48.426;1.500;2023-05-20T07:20:24;16.20;77.30
62363;DHT22;48396;48.426;1.500;2023-05-20T07:22:50;16.20;77.60
62363;DHT22;48396;48.426;1.500;2023-05-20T07:25:16;16.30;77.50
62363;DHT22;48396;48.426;1.500;2023-05-20T07:27:41;16.30;77.50
62363;DHT22;48396;48.426;1.500;2023-05-20T07:30:07;16.40;77.50
62363;DHT22;48396;48.426;1.500;2023-05-20T07:32:33;16.40;77.50
62363;DHT22;48396;48.426;1.500;2023-05-20T07:34:58;16.50;77.60
62363;DHT22;48396;48.426;1.500;2023-05-20T07:37:24;16.60;77.30
62363;DHT22;48396;48.426;1.500;2023-05-20T07:39:50;16.60;77.30
62363;DHT22;48396;48.426;1.500;2023-05-20T07:42:15;16.70;77.40
62363;DHT22;48396;48.426;1.500;2023-05-20T07:44:41;16.70;77.30
62363;DHT22;48396;48.426;1.500;2023-05-20T07:47:06;16.70;77.20
62363;DHT22;48396;48.426;1.500;2023-05-20T07:49:32;16.70;77.30
62363;DHT22;48396;48.426;1.500;2023-05-20T07:51:58;16.60;77.70
62363;DHT22;48396;48.426;1.500;2023-05-20T07:54:23;16.70;77.70
62363;DHT22;48396;48.426;1.500;2023-05-20T07:56:49;16.80;77.50
62363;DHT22;48396;48.426;1.500;2023-05-20T07:59:14;16.80;77.60
62363;DHT22;48396;48.426;1.500;2023-05-20T08:01:40;16.90;77.60
62363;DHT22;48396;48.426;1.500;2023-05-20T08:04:06;17.00;77.60
62363;DHT22;48396;48.426;1.500;2023-05-20T08:06:32;17.10;77.60
62363;DHT22;48396;48.426;1.500;2023-05-20T08:09:00;17.10;77.40
62363;DHT22;48396;48.426;1.500;2023-05-20T08:11:26;17.20;77.60
62363;DHT22;48396;48.426;1.500;2023-05-20T08:13:51;17.20;77.50
62363;DHT22;48396;48.426;1.500;2023-05-20T08:16:17;17.30;77.50
62363;DHT22;48396;48.426;1.500;2023-05-20T08:18:42;17.30;77.50
62363;DHT22;48396;48.426;1.500;2023-05-20T08:21:08;17.30;77.50
62363;DHT22;48396;48.426;1.500;2023-05-20T08:23:35;17.30;77.40
62363;DHT22;48396;48.426;1.500;2023-05-20T08:26:01;17.30;77.60
62363;DHT22;48396;48.426;1.500;2023-05-20T08:28:28;17.30;77.80
62363;DHT22;48396;48.426;1.500;2023-05-20T08:30:54;17.50;77.70
62363;DHT22;48396;48.426;1.500;2023-05-20T08:33:19;17.50;77.60
62363;DHT22;48396;48.426;1.500;2023-05-20T08:35:47;17.60;77.60
62363;DHT22;48396;48.426;1.500;2023-05-20T08:38:12;17.70;77.60
62363;DHT22;48396;48.426;1.500;2023-05-20T08:40:38;17.80;77.60
62363;DHT22;48396;48.426;1.500;2023-05-20T08:43:04;17.80;77.50
62363;DHT22;48396;48.426;1.500;2023-05-20T08:45:32;17.90;77.50
62363;DHT22;48396;48.426;1.500;2023-05-20T08:47:58;17.90;77.50
62363;DHT22;48396;48.426;1.500;2023-05-20T08:50:24;18.00;77.40
62363;DHT22;48396;48.426;1.500;2023-05-20T08:52:50;18.00;77.50
62363;DHT22;48396;48.426;1.500;2023-05-20T08:58:09;18.10;77.20
62363;DHT22;48396;48.426;1.500;2023-05-20T09:00:34;18.10;77.10
62363;DHT22;48396;48.426;1.500;2023-05-20T09:03:01;18.10;77.10
62363;DHT22;48396;48.426;1.500;2023-05-20T09:05:28;18.20;77.00
62363;DHT22;48396;48.426;1.500;2023-05-20T09:08:07;18.20;77.10
62363;DHT22;48396;48.426;1.500;2023-05-20T09:10:33;18.30;77.20
62363;DHT22;48396;48.426;1.500;2023-05-20T09:13:00;18.50;77.20
62363;DHT22;48396;48.426;1.500;2023-05-20T09:15:26;18.60;77.20
62363;DHT22;48396;48.426;1.500;2023-05-20T09:17:52;18.60;76.80
62363;DHT22;48396;48.426;1.500;2023-05-20T09:20:20;18.70;77.10
62363;DHT22;48396;48.426;1.500;2023-05-20T09:23:07;18.70;77.00
62363;DHT22;48396;48.426;1.500;2023-05-20T09:25:33;18.70;77.10
62363;DHT22;48396;48.426;1.500;2023-05-20T09:27:59;18.70;77.00
62363;DHT22;48396;48.426;1.500;2023-05-20T09:30:25;18.60;76.50
62363;DHT22;48396;48.426;1.500;2023-05-20T09:32:55;18.70;76.90
62363;DHT22;48396;48.426;1.500;2023-05-20T09:35:22;18.80;77.10
62363;DHT22;48396;48.426;1.500;2023-05-20T09:37:51;18.80;76.90
62363;DHT22;48396;48.426;1.500;2023-05-20T09:40:20;18.90;77.00
62363;DHT22;48396;48.426;1.500;2023-05-20T09:42:55;18.90;77.00
62363;DHT22;48396;48.426;1.500;2023-05-20T09:45:21;19.00;76.90
62363;DHT22;48396;48.426;1.500;2023-05-20T09:47:49;19.10;76.50
62363;DHT22;48396;48.426;1.500;2023-05-20T09:50:16;19.10;75.60
62363;DHT22;48396;48.426;1.500;2023-05-20T09:52:43;19.20;75.40
62363;DHT22;48396;48.426;1.500;2023-05-20T09:55:09;19.30;75.20
62363;DHT22;48396;48.426;1.500;2023-05-20T09:57:36;19.30;74.60
62363;DHT22;48396;48.426;1.500;2023-05-20T10:00:04;19.30;74.80
62363;DHT22;48396;48.426;1.500;2023-05-20T10:05:18;19.50;74.70
62363;DHT22;48396;48.426;1.500;2023-05-20T10:10:51;19.70;74.30
62363;DHT22;48396;48.426;1.500;2023-05-20T10:21:21;19.90;73.70
62363;DHT22;48396;48.426;1.500;2023-05-20T10:23:51;19.90;73.70
62363;DHT22;48396;48.426;1.500;2023-05-20T10:26:17;19.90;73.30
62363;DHT22;48396;48.426;1.500;2023-05-20T10:28:45;20.00;73.80
62363;DHT22;48396;48.426;1.500;2023-05-20T10:31:21;20.00;73.40
62363;DHT22;48396;48.426;1.500;2023-05-20T10:33:47;20.00;73.60
62363;DHT22;48396;48.426;1.500;2023-05-20T10:36:27;20.00;73.90
62363;DHT22;48396;48.426;1.500;2023-05-20T10:38:57;20.00;73.80
62363;DHT22;48396;48.426;1.500;2023-05-20T10:41:25;20.10;72.70
62363;DHT22;48396;48.426;1.500;2023-05-20T10:44:04;20.20;72.50
62363;DHT22;48396;48.426;1.500;2023-05-20T10:46:30;20.30;71.80
62363;DHT22;48396;48.426;1.500;2023-05-20T10:48:56;20.50;71.50
62363;DHT22;48396;48.426;1.500;2023-05-20T10:51:23;20.50;70.40
62363;DHT22;48396;48.426;1.500;2023-05-20T10:53:52;20.50;70.20
62363;DHT22;48396;48.426;1.500;2023-05-20T10:59:03;20.70;68.40
62363;DHT22;48396;48.426;1.500;2023-05-20T11:01:29;20.80;66.50
62363;DHT22;48396;48.426;1.500;2023-05-20T11:03:56;20.90;66.50
62363;DHT22;48396;48.426;1.500;2023-05-20T11:06:25;21.00;65.90
62363;DHT22;48396;48.426;1.500;2023-05-20T11:08:52;21.00;65.20
62363;DHT22;48396;48.426;1.500;2023-05-20T11:11:18;21.10;64.50
62363;DHT22;48396;48.426;1.500;2023-05-20T11:13:47;21.10;63.20
62363;DHT22;48396;48.426;1.500;2023-05-20T11:16:14;21.10;63.70
62363;DHT22;48396;48.426;1.500;2023-05-20T11:18:40;21.10;63.50
62363;DHT22;48396;48.426;1.500;2023-05-20T11:21:05;21.20;63.80
62363;DHT22;48396;48.426;1.500;2023-05-20T11:23:31;21.20;63.20
62363;DHT22;48396;48.426;1.500;2023-05-20T11:25:57;21.20;63.60
62363;DHT22;48396;48.426;1.500;2023-05-20T11:28:23;21.30;63.40
62363;DHT22;48396;48.426;1.500;2023-05-20T11:30:50;21.30;63.50
62363;DHT22;48396;48.426;1.500;2023-05-20T11:33:17;21.30;62.40
62363;DHT22;48396;48.426;1.500;2023-05-20T11:35:48;21.40;61.80
62363;DHT22;48396;48.426;1.500;2023-05-20T11:38:14;21.40;62.00
62363;DHT22;48396;48.426;1.500;2023-05-20T11:40:44;21.40;62.00
62363;DHT22;48396;48.426;1.500;2023-05-20T11:43:12;21.50;62.30
62363;DHT22;48396;48.426;1.500;2023-05-20T11:45:55;21.60;62.40
62363;DHT22;48396;48.426;1.500;2023-05-20T11:48:21;21.70;62.40
62363;DHT22;48396;48.426;1.500;2023-05-20T11:50:47;21.70;61.90
62363;DHT22;48396;48.426;1.500;2023-05-20T11:53:18;21.70;61.50
62363;DHT22;48396;48.426;1.500;2023-05-20T11:55:48;21.80;61.60
62363;DHT22;48396;48.426;1.500;2023-05-20T11:58:30;21.80;61.10
62363;DHT22;48396;48.426;1.500;2023-05-20T12:00:56;21.90;61.10
62363;DHT22;48396;48.426;1.500;2023-05-20T12:03:22;21.90;61.30
62363;DHT22;48396;48.426;1.500;2023-05-20T12:05:48;22.00;61.20
62363;DHT22;48396;48.426;1.500;2023-05-20T12:08:15;22.00;61.00
62363;DHT22;48396;48.426;1.500;2023-05-20T12:10:42;22.00;60.90
62363;DHT22;48396;48.426;1.500;2023-05-20T12:13:09;22.10;60.70
62363;DHT22;48396;48.426;1.500;2023-05-20T12:15:55;22.00;60.40
62363;DHT22;48396;48.426;1.500;2023-05-20T12:18:21;22.10;60.60
62363;DHT22;48396;48.426;1.500;2023-05-20T12:20:47;22.10;60.80
62363;DHT22;48396;48.426;1.500;2023-05-20T12:23:12;22.10;61.00
62363;DHT22;48396;48.426;1.500;2023-05-20T12:25:38;22.20;61.20
62363;DHT22;48396;48.426;1.500;2023-05-20T12:28:03;22.20;60.90
62363;DHT22;48396;48.426;1.500;2023-05-20T12:30:29;22.40;59.90
62363;DHT22;48396;48.426;1.500;2023-05-20T12:32:55;22.30;59.30
62363;DHT22;48396;48.426;1.500;2023-05-20T12:35:25;22.40;59.70
62363;DHT22;48396;48.426;1.500;2023-05-20T12:38:00;22.40;59.50
62363;DHT22;48396;48.426;1.500;2023-05-20T12:40:26;22.40;59.60
62363;DHT22;48396;48.426;1.500;2023-05-20T12:42:51;22.50;59.50
62363;DHT22;48396;48.426;1.500;2023-05-20T12:45:17;22.60;59.90
62363;DHT22;48396;48.426;1.500;2023-05-20T12:47:43;22.70;60.10
62363;DHT22;48396;48.426;1.500;2023-05-20T12:50:09;22.80;60.10
62363;DHT22;48396;48.426;1.500;2023-05-20T12:52:35;22.80;59.60
62363;DHT22;48396;48.426;1.500;2023-05-20T12:55:00;22.90;59.70
62363;DHT22;48396;48.426;1.500;2023-05-20T12:57:26;23.00;59.50
62363;DHT22;48396;48.426;1.500;2023-05-20T12:59:52;23.10;59.30
62363;DHT22;48396;48.426;1.500;2023-05-20T13:02:17;23.10;59.30
62363;DHT22;48396;48.426;1.500;2023-05-20T13:04:43;23.10;58.60
62363;DHT22;48396;48.426;1.500;2023-05-20T13:07:09;23.10;58.80
62363;DHT22;48396;48.426;1.500;2023-05-20T13:09:34;23.10;59.10
62363;DHT22;48396;48.426;1.500;2023-05-20T13:12:01;23.20;58.90
62363;DHT22;48396;48.426;1.500;2023-05-20T13:14:26;23.30;58.50
62363;DHT22;48396;48.426;1.500;2023-05-20T13:16:52;23.30;57.70
62363;DHT22;48396;48.426;1.500;2023-05-20T13:19:22;23.40;57.20
62363;DHT22;48396;48.426;1.500;2023-05-20T13:21:49;23.40;57.30
62363;DHT22;48396;48.426;1.500;2023-05-20T13:24:15;23.50;57.40
62363;DHT22;48396;48.426;1.500;2023-05-20T13:26:40;23.60;57.50
62363;DHT22;48396;48.426;1.500;2023-05-20T13:29:06;23.60;57.20
62363;DHT22;48396;48.426;1.500;2023-05-20T13:31:31;23.70;57.60
62363;DHT22;48396;48.426;1.500;2023-05-20T13:33:57;23.70;57.10
62363;DHT22;48396;48.426;1.500;2023-05-20T13:36:25;23.70;56.90
62363;DHT22;48396;48.426;1.500;2023-05-20T13:38:51;23.70;56.70
62363;DHT22;48396;48.426;1.500;2023-05-20T13:41:16;23.70;57.00
62363;DHT22;48396;48.426;1.500;2023-05-20T13:43:42;23.70;56.90
62363;DHT22;48396;48.426;1.500;2023-05-20T13:46:07;23.70;57.00
62363;DHT22;48396;48.426;1.500;2023-05-20T13:48:33;23.60;56.50
62363;DHT22;48396;48.426;1.500;2023-05-20T13:50:59;23.60;57.20
62363;DHT22;48396;48.426;1.500;2023-05-20T13:53:26;23.70;57.40
62363;DHT22;48396;48.426;1.500;2023-05-20T13:55:52;23.70;56.90
62363;DHT22;48396;48.426;1.500;2023-05-20T13:58:17;23.70;56.70
62363;DHT22;48396;48.426;1.500;2023-05-20T14:00:43;23.60;56.60
62363;DHT22;48396;48.426;1.500;2023-05-20T14:03:09;23.70;56.60
62363;DHT22;48396;48.426;1.500;2023-05-20T14:05:35;23.70;56.40
62363;DHT22;48396;48.426;1.500;2023-05-20T14:08:01;23.70;56.30
62363;DHT22;48396;48.426;1.500;2023-05-20T14:10:27;23.80;56.50
62363;DHT22;48396;48.426;1.500;2023-05-20T14:12:57;23.80;56.60
62363;DHT22;48396;48.426;1.500;2023-05-20T14:15:23;23.80;56.30
62363;DHT22;48396;48.426;1.500;2023-05-20T14:17:48;23.80;56.50
62363;DHT22;48396;48.426;1.500;2023-05-20T14:20:15;23.90;56.60
62363;DHT22;48396;48.426;1.500;2023-05-20T14:22:41;23.80;56.50
62363;DHT22;48396;48.426;1.500;2023-05-20T14:25:07;23.90;56.70
62363;DHT22;48396;48.426;1.500;2023-05-20T14:27:33;23.90;56.30
62363;DHT22;48396;48.426;1.500;2023-05-20T14:29:59;23.90;56.10
62363;DHT22;48396;48.426;1.500;2023-05-20T14:32:24;23.90;56.10
62363;DHT22;48396;48.426;1.500;2023-05-20T14:34:50;24.00;56.30
62363;DHT22;48396;48.426;1.500;2023-05-20T14:37:16;24.00;55.60
62363;DHT22;48396;48.426;1.500;2023-05-20T14:39:42;24.10;55.70
62363;DHT22;48396;48.426;1.500;2023-05-20T14:42:07;24.10;55.80
62363;DHT22;48396;48.426;1.500;2023-05-20T14:44:33;24.20;55.50
62363;DHT22;48396;48.426;1.500;2023-05-20T14:46:58;24.20;55.60
62363;DHT22;48396;48.426;1.500;2023-05-20T14:49:24;24.30;55.60
62363;DHT22;48396;48.426;1.500;2023-05-20T14:51:50;24.30;55.10
62363;DHT22;48396;48.426;1.500;2023-05-20T14:54:15;24.30;55.00
62363;DHT22;48396;48.426;1.500;2023-05-20T14:56:43;24.30;54.80
62363;DHT22;48396;48.426;1.500;2023-05-20T14:59:09;24.30;54.80
62363;DHT22;48396;48.426;1.500;2023-05-20T15:01:35;24.40;55.10
62363;DHT22;48396;48.426;1.500;2023-05-20T15:04:01;24.30;54.90
62363;DHT22;48396;48.426;1.500;2023-05-20T15:06:27;24.30;54.80
62363;DHT22;48396;48.426;1.500;2023-05-20T15:08:52;24.30;55.60
62363;DHT22;48396;48.426;1.500;2023-05-20T15:11:18;24.20;54.90
62363;DHT22;48396;48.426;1.500;2023-05-20T15:13:44;24.20;54.90
62363;DHT22;48396;48.426;1.500;2023-05-20T15:16:11;24.30;55.00
62363;DHT22;48396;48.426;1.500;2023-05-20T15:18:37;24.30;54.90
62363;DHT22;48396;48.426;1.500;2023-05-20T15:21:02;24.20;54.90
62363;DHT22;48396;48.426;1.500;2023-05-20T15:23:28;24.20;55.50
62363;DHT22;48396;48.426;1.500;2023-05-20T15:25:54;24.20;55.20
62363;DHT22;48396;48.426;1.500;2023-05-20T15:28:22;24.20;54.80
62363;DHT22;48396;48.426;1.500;2023-05-20T15:33:39;24.20;55.20
62363;DHT22;48396;48.426;1.500;2023-05-20T15:36:04;24.20;55.20
62363;DHT22;48396;48.426;1.500;2023-05-20T15:38:30;24.30;55.00
62363;DHT22;48396;48.426;1.500;2023-05-20T15:40:56;24.30;55.20
62363;DHT22;48396;48.426;1.500;2023-05-20T15:43:22;24.30;55.20
62363;DHT22;48396;48.426;1.500;2023-05-20T15:45:47;24.40;55.10
62363;DHT22;48396;48.426;1.500;2023-05-20T15:48:13;24.40;55.00